createdAt,value
2019-05-13T00:00:30.195Z,8.00
2019-05-13T00:03:03.351Z,8.00
2019-05-13T00:05:33.824Z,7.90
2019-05-13T00:08:03.660Z,7.90
2019-05-13T00:10:35.033Z,7.90
2019-05-13T00:13:05.153Z,7.90
2019-05-13T00:15:35.201Z,7.90
2019-05-13T00:18:04.598Z,7.90
2019-05-13T00:20:38.464Z,7.80
2019-05-13T00:23:17.175Z,7.90
2019-05-13T00:25:47.489Z,7.90
2019-05-13T00:28:20.272Z,7.90
2019-05-13T00:30:51.025Z,7.90
2019-05-13T00:33:24.374Z,7.80
2019-05-13T00:35:58.295Z,7.80
2019-05-13T00:38:27.720Z,7.80
2019-05-13T00:40:59.212Z,7.90
2019-05-13T00:43:30.665Z,7.90
2019-05-13T00:46:01.116Z,7.90
2019-05-13T00:48:33.607Z,7.90
2019-05-13T00:51:03.952Z,7.80
2019-05-13T00:53:39.405Z,7.80
2019-05-13T00:56:09.954Z,7.80
2019-05-13T00:58:39.978Z,7.90
2019-05-13T01:01:09.397Z,7.80
2019-05-13T01:03:38.786Z,7.70
2019-05-13T01:06:10.029Z,7.70
2019-05-13T01:08:41.091Z,7.80
2019-05-13T01:11:13.208Z,7.70
2019-05-13T01:13:43.563Z,7.60
2019-05-13T01:16:14.007Z,7.70
2019-05-13T01:18:43.673Z,7.60
2019-05-13T01:21:13.790Z,7.60
2019-05-13T01:23:43.822Z,7.60
2019-05-13T01:26:14.147Z,7.60
2019-05-13T01:28:46.521Z,7.50
2019-05-13T01:31:17.110Z,7.50
2019-05-13T01:33:46.516Z,7.50
2019-05-13T01:36:17.517Z,7.50
2019-05-13T01:38:49.199Z,7.50
2019-05-13T01:41:18.592Z,7.50
2019-05-13T01:43:48.395Z,7.50
2019-05-13T01:46:18.124Z,7.50
2019-05-13T01:48:47.532Z,7.40
2019-05-13T01:51:18.084Z,7.40
2019-05-13T01:53:47.832Z,7.50
2019-05-13T01:56:19.746Z,7.50
2019-05-13T01:58:49.844Z,7.50
2019-05-13T02:01:19.255Z,7.50
2019-05-13T02:03:49.089Z,7.50
2019-05-13T02:06:18.906Z,7.60
2019-05-13T02:08:48.555Z,7.50
2019-05-13T02:11:18.108Z,7.60
2019-05-13T02:13:47.525Z,7.50
2019-05-13T02:16:18.113Z,7.40
2019-05-13T02:18:47.514Z,7.40
2019-05-13T02:21:19.361Z,7.40
2019-05-13T02:23:49.184Z,7.30
2019-05-13T02:26:18.925Z,7.40
2019-05-13T02:28:48.348Z,7.40
2019-05-13T02:31:26.789Z,7.40
2019-05-13T02:33:49.272Z,7.40
2019-05-13T02:36:22.530Z,7.50
2019-05-13T02:38:53.193Z,7.50
2019-05-13T02:41:22.759Z,7.40
2019-05-13T02:43:53.458Z,7.50
2019-05-13T02:46:22.946Z,7.50
2019-05-13T02:48:52.937Z,7.40
2019-05-13T02:51:23.266Z,7.50
2019-05-13T02:53:53.151Z,7.50
2019-05-13T02:56:22.805Z,7.50
2019-05-13T02:58:54.464Z,7.50
2019-05-13T03:01:23.878Z,7.60
2019-05-13T03:03:55.112Z,7.50
2019-05-13T03:06:25.005Z,7.40
2019-05-13T03:08:56.742Z,7.40
2019-05-13T03:11:27.489Z,7.50
2019-05-13T03:13:57.509Z,7.40
2019-05-13T03:16:45.926Z,7.40
2019-05-13T03:19:15.332Z,7.50
2019-05-13T03:21:47.440Z,7.30
2019-05-13T03:24:18.387Z,7.20
2019-05-13T03:26:47.934Z,7.20
2019-05-13T03:29:22.162Z,7.20
2019-05-13T03:31:56.468Z,7.20
2019-05-13T03:34:28.042Z,7.20
2019-05-13T03:37:06.487Z,7.20
2019-05-13T03:39:38.850Z,7.30
2019-05-13T03:42:12.444Z,7.30
2019-05-13T03:44:47.774Z,7.30
2019-05-13T03:47:23.017Z,7.40
2019-05-13T03:49:58.214Z,7.20
2019-05-13T03:52:27.671Z,7.20
2019-05-13T03:54:57.045Z,7.20
2019-05-13T03:57:27.422Z,7.20
2019-05-13T03:59:57.477Z,7.20
2019-05-13T04:02:27.250Z,7.10
2019-05-13T04:04:59.214Z,7.00
2019-05-13T04:07:32.559Z,7.00
2019-05-13T04:10:05.910Z,7.00
2019-05-13T04:12:35.322Z,7.10
2019-05-13T04:15:05.141Z,7.20
2019-05-13T04:17:34.621Z,7.20
2019-05-13T04:20:04.657Z,7.20
2019-05-13T04:22:34.317Z,7.10
2019-05-13T04:25:05.923Z,7.20
2019-05-13T04:27:35.270Z,7.20
2019-05-13T04:30:06.911Z,7.20
2019-05-13T04:32:36.298Z,7.30
2019-05-13T04:35:06.600Z,7.30
2019-05-13T04:37:47.359Z,7.30
2019-05-13T04:40:18.223Z,7.30
2019-05-13T04:42:47.607Z,7.50
2019-05-13T04:45:17.736Z,7.50
2019-05-13T04:48:08.671Z,7.70
2019-05-13T04:50:38.864Z,7.70
2019-05-13T04:53:08.297Z,7.80
2019-05-13T04:55:37.722Z,7.80
2019-05-13T04:58:08.486Z,8.10
2019-05-13T05:01:07.566Z,8.20
2019-05-13T05:03:46.223Z,8.20
2019-05-13T05:06:36.113Z,8.10
2019-05-13T05:09:13.976Z,8.30
2019-05-13T05:12:42.521Z,8.50
2019-05-13T05:16:08.696Z,8.70
2019-05-13T05:19:23.938Z,8.80
2019-05-13T05:22:02.838Z,8.90
2019-05-13T05:24:53.528Z,9.20
2019-05-13T05:27:37.941Z,9.40
2019-05-13T05:30:35.668Z,9.60
2019-05-13T05:33:41.206Z,9.80
2019-05-13T05:36:43.094Z,10.00
2019-05-13T05:39:25.721Z,10.20
2019-05-13T05:41:57.173Z,10.30
2019-05-13T05:44:29.028Z,10.40
2019-05-13T05:47:02.541Z,10.60
2019-05-13T05:49:32.172Z,10.70
2019-05-13T05:52:12.290Z,10.80
2019-05-13T05:54:42.252Z,10.90
2019-05-13T05:57:12.747Z,11.10
2019-05-13T06:02:12.661Z,11.70
2019-05-13T06:04:43.244Z,11.90
2019-05-13T06:07:14.238Z,12.00
2019-05-13T06:09:51.580Z,12.00
2019-05-13T06:12:21.585Z,12.20
2019-05-13T06:14:52.818Z,12.30
2019-05-13T06:17:23.653Z,12.40
2019-05-13T06:19:53.425Z,12.20
2019-05-13T06:22:22.872Z,12.10
2019-05-13T06:24:52.384Z,12.10
2019-05-13T06:27:22.981Z,12.60
2019-05-13T06:29:52.957Z,13.10
2019-05-13T06:32:26.228Z,13.60
2019-05-13T06:34:54.005Z,14.10
2019-05-13T06:37:32.022Z,14.60
2019-05-13T06:40:06.898Z,15.50
2019-05-13T06:42:36.557Z,16.60
2019-05-13T06:45:07.429Z,16.50
2019-05-13T06:47:38.682Z,16.30
2019-05-13T06:50:11.700Z,16.10
2019-05-13T06:52:42.483Z,15.90
2019-05-13T06:55:14.609Z,15.60
2019-05-13T06:57:43.944Z,14.70
2019-05-13T07:00:18.198Z,15.40
2019-05-13T07:02:47.620Z,16.60
2019-05-13T07:05:18.120Z,17.60
2019-05-13T07:07:47.532Z,18.10
2019-05-13T07:10:21.490Z,18.00
2019-05-13T07:12:51.854Z,17.40
2019-05-13T07:15:22.518Z,18.10
2019-05-13T07:17:52.204Z,19.00
2019-05-13T07:20:23.411Z,18.50
2019-05-13T07:22:53.416Z,17.40
2019-05-13T07:25:25.206Z,16.90
2019-05-13T07:27:54.732Z,16.10
2019-05-13T07:30:42.463Z,15.20
2019-05-13T07:33:12.853Z,14.70
2019-05-13T07:35:45.363Z,14.10
2019-05-13T07:38:18.061Z,13.80
2019-05-13T07:40:52.188Z,14.30
2019-05-13T07:43:21.654Z,14.60
2019-05-13T07:45:51.429Z,14.40
2019-05-13T07:48:27.644Z,14.10
2019-05-13T07:51:00.192Z,13.80
2019-05-13T07:53:24.636Z,13.70
2019-05-13T07:55:54.629Z,13.80
2019-05-13T07:58:24.480Z,14.10
2019-05-13T08:00:53.911Z,14.00
2019-05-13T08:03:24.257Z,14.10
2019-05-13T08:05:55.872Z,14.30
2019-05-13T08:08:25.628Z,14.00
2019-05-13T08:10:56.061Z,14.20
2019-05-13T08:13:25.964Z,14.30
2019-05-13T08:15:55.674Z,14.30
2019-05-13T08:18:25.094Z,14.50
2019-05-13T08:20:54.477Z,14.90
2019-05-13T08:25:53.589Z,16.00
2019-05-13T08:28:22.996Z,16.40
2019-05-13T08:30:52.743Z,16.80
2019-05-13T08:33:24.688Z,17.40
2019-05-13T08:35:58.665Z,17.70
2019-05-13T08:38:31.866Z,17.60
2019-05-13T08:41:03.034Z,17.30
2019-05-13T08:43:32.428Z,16.80
2019-05-13T08:46:08.782Z,16.90
2019-05-13T08:48:42.868Z,16.70
2019-05-13T08:51:14.133Z,16.70
2019-05-13T08:53:43.527Z,17.90
2019-05-13T08:56:13.085Z,18.40
2019-05-13T08:58:42.952Z,18.80
2019-05-13T09:01:14.165Z,20.60
2019-05-13T09:03:45.046Z,22.50
2019-05-13T09:06:15.364Z,23.20
2019-05-13T09:08:46.765Z,23.20
2019-05-13T09:11:22.054Z,22.10
2019-05-13T09:13:51.587Z,22.90
2019-05-13T09:16:26.480Z,22.40
2019-05-13T09:19:03.396Z,22.60
2019-05-13T09:21:31.827Z,23.30
2019-05-13T09:24:02.424Z,23.00
2019-05-13T09:26:33.450Z,22.40
2019-05-13T09:29:04.381Z,23.40
2019-05-13T09:31:37.756Z,25.30
2019-05-13T09:34:12.298Z,25.30
2019-05-13T09:36:44.058Z,24.00
2019-05-13T09:39:17.595Z,21.90
2019-05-13T09:41:52.026Z,20.10
2019-05-13T09:44:22.442Z,19.10
2019-05-13T09:46:53.028Z,18.20
2019-05-13T09:49:27.724Z,17.30
2019-05-13T09:51:58.275Z,16.00
2019-05-13T09:54:32.214Z,15.10
2019-05-13T09:57:01.701Z,14.20
2019-05-13T09:59:34.349Z,13.80
2019-05-13T10:02:03.680Z,13.40
2019-05-13T10:04:34.517Z,13.10
2019-05-13T10:07:04.275Z,13.00
2019-05-13T10:09:34.678Z,13.00
2019-05-13T10:12:05.133Z,13.00
2019-05-13T10:14:34.531Z,13.00
2019-05-13T10:17:06.519Z,13.00
2019-05-13T10:19:36.421Z,13.00
2019-05-13T10:22:05.858Z,13.00
2019-05-13T10:24:36.122Z,13.20
2019-05-13T10:27:06.373Z,13.20
2019-05-13T10:29:42.176Z,13.40
2019-05-13T10:32:17.801Z,13.50
2019-05-13T10:34:51.949Z,13.60
2019-05-13T10:37:22.487Z,13.60
2019-05-13T10:39:53.374Z,13.70
2019-05-13T10:42:26.195Z,13.80
2019-05-13T10:44:56.926Z,13.80
2019-05-13T10:47:26.730Z,13.90
2019-05-13T10:49:57.708Z,14.30
2019-05-13T10:52:28.122Z,14.50
2019-05-13T10:54:57.509Z,14.60
2019-05-13T10:57:31.835Z,14.60
2019-05-13T11:00:05.676Z,14.50
2019-05-13T11:02:38.833Z,14.80
2019-05-13T11:05:12.304Z,15.10
2019-05-13T11:07:44.236Z,15.50
2019-05-13T11:10:15.968Z,15.70
2019-05-13T11:12:52.016Z,16.00
2019-05-13T11:15:23.696Z,16.00
2019-05-13T11:17:55.685Z,15.90
2019-05-13T11:20:25.634Z,16.10
2019-05-13T11:22:55.481Z,16.30
2019-05-13T11:25:26.524Z,16.20
2019-05-13T11:27:58.430Z,16.10
2019-05-13T11:30:28.359Z,15.50
2019-05-13T11:33:02.234Z,14.90
2019-05-13T11:35:32.079Z,14.50
2019-05-13T11:38:02.056Z,14.30
2019-05-13T11:40:32.575Z,14.10
2019-05-13T11:43:07.040Z,14.00
2019-05-13T11:45:36.526Z,14.50
2019-05-13T11:48:06.239Z,14.60
2019-05-13T11:50:37.943Z,14.30
2019-05-13T11:53:30.021Z,14.10
2019-05-13T11:55:38.570Z,13.90
2019-05-13T11:58:08.336Z,13.70
2019-05-13T12:00:53.525Z,13.60
2019-05-13T12:03:27.854Z,13.40
2019-05-13T12:05:58.177Z,13.50
2019-05-13T12:08:27.837Z,13.60
2019-05-13T12:10:59.311Z,13.80
2019-05-13T12:13:32.809Z,14.20
2019-05-13T12:16:03.908Z,14.50
2019-05-13T12:18:33.587Z,15.00
2019-05-13T12:21:06.266Z,15.00
2019-05-13T12:23:38.121Z,15.10
2019-05-13T12:26:08.662Z,15.30
2019-05-13T12:28:42.103Z,15.40
2019-05-13T12:31:14.559Z,15.40
2019-05-13T12:33:44.272Z,15.20
2019-05-13T12:36:18.816Z,14.90
2019-05-13T12:38:47.021Z,14.80
2019-05-13T12:41:22.764Z,14.70
2019-05-13T12:43:53.899Z,14.60
2019-05-13T12:46:24.646Z,14.60
2019-05-13T12:48:55.770Z,14.60
2019-05-13T12:51:27.014Z,14.80
2019-05-13T12:53:56.687Z,15.00
2019-05-13T12:56:26.057Z,15.20
2019-05-13T12:58:55.722Z,15.30
2019-05-13T13:01:26.527Z,15.20
2019-05-13T13:03:55.943Z,15.10
2019-05-13T13:06:40.274Z,15.00
2019-05-13T13:09:04.952Z,14.80
2019-05-13T13:11:34.448Z,14.70
2019-05-13T13:14:07.701Z,14.70
2019-05-13T13:16:36.337Z,14.50
2019-05-13T13:19:08.790Z,14.30
2019-05-13T13:21:39.193Z,14.40
2019-05-13T13:24:11.682Z,14.50
2019-05-13T13:26:43.059Z,14.60
2019-05-13T13:29:12.512Z,14.80
2019-05-13T13:31:43.143Z,15.40
2019-05-13T13:34:18.419Z,15.60
2019-05-13T13:36:46.308Z,15.80
2019-05-13T13:39:16.613Z,15.70
2019-05-13T13:41:46.354Z,15.50
2019-05-13T13:44:18.560Z,15.30
2019-05-13T13:46:53.617Z,15.30
2019-05-13T13:49:23.165Z,15.40
2019-05-13T13:51:52.711Z,15.60
2019-05-13T13:54:24.675Z,15.80
2019-05-13T13:56:56.230Z,16.10
2019-05-13T13:59:26.139Z,16.50
2019-05-13T14:01:55.673Z,16.70
2019-05-13T14:04:27.892Z,16.30
2019-05-13T14:07:25.301Z,16.10
2019-05-13T14:09:34.614Z,15.90
2019-05-13T14:12:04.280Z,15.80
2019-05-13T14:14:37.909Z,15.80
2019-05-13T14:17:11.320Z,15.80
2019-05-13T14:19:42.843Z,15.80
2019-05-13T14:22:12.861Z,15.30
2019-05-13T14:24:43.123Z,15.00
2019-05-13T14:27:18.857Z,14.80
2019-05-13T14:29:52.889Z,14.80
2019-05-13T14:32:24.058Z,15.10
2019-05-13T14:34:55.028Z,15.20
2019-05-13T14:37:27.306Z,15.40
2019-05-13T14:40:02.659Z,15.40
2019-05-13T14:42:32.334Z,15.10
2019-05-13T14:45:09.256Z,14.90
2019-05-13T14:47:45.676Z,14.90
2019-05-13T14:50:18.142Z,15.10
2019-05-13T14:52:53.412Z,15.30
2019-05-13T14:55:28.277Z,15.60
2019-05-13T14:57:57.935Z,15.80
2019-05-13T15:00:27.770Z,15.70
2019-05-13T15:02:57.386Z,15.20
2019-05-13T15:05:27.055Z,14.90
2019-05-13T15:08:01.183Z,14.60
2019-05-13T15:10:31.472Z,14.30
2019-05-13T15:13:04.413Z,14.30
2019-05-13T15:15:42.038Z,14.50
2019-05-13T15:18:11.368Z,14.70
2019-05-13T15:20:41.771Z,14.90
2019-05-13T15:23:12.220Z,15.10
2019-05-13T15:25:42.108Z,15.20
2019-05-13T15:28:12.072Z,15.40
2019-05-13T15:30:42.177Z,15.70
2019-05-13T15:33:12.420Z,15.80
2019-05-13T15:35:43.876Z,15.90
2019-05-13T15:38:16.399Z,16.20
2019-05-13T15:40:46.787Z,16.30
2019-05-13T15:43:17.214Z,16.10
2019-05-13T15:45:47.095Z,15.60
2019-05-13T15:48:18.203Z,15.50
2019-05-13T15:50:48.231Z,15.40
2019-05-13T15:53:21.637Z,15.20
2019-05-13T15:55:51.658Z,15.00
2019-05-13T15:58:31.924Z,15.10
2019-05-13T16:00:52.549Z,15.20
2019-05-13T16:03:22.562Z,15.30
2019-05-13T16:05:54.808Z,15.50
2019-05-13T16:08:25.078Z,15.80
2019-05-13T16:10:55.577Z,15.80
2019-05-13T16:13:26.278Z,15.80
2019-05-13T16:15:56.200Z,15.70
2019-05-13T16:18:25.785Z,15.80
2019-05-13T16:20:55.712Z,15.60
2019-05-13T16:23:25.627Z,15.40
2019-05-13T16:25:55.141Z,15.30
2019-05-13T16:28:24.620Z,15.10
2019-05-13T16:30:55.976Z,14.80
2019-05-13T16:33:28.009Z,14.50
2019-05-13T16:36:02.587Z,14.20
2019-05-13T16:38:33.948Z,13.90
2019-05-13T16:41:03.933Z,13.70
2019-05-13T16:43:33.960Z,13.60
2019-05-13T16:46:08.658Z,13.50
2019-05-13T16:48:38.844Z,13.40
2019-05-13T16:51:12.042Z,13.40
2019-05-13T16:53:42.257Z,13.30
2019-05-13T16:56:25.849Z,13.40
2019-05-13T16:58:43.455Z,13.40
2019-05-13T17:01:15.814Z,13.40
2019-05-13T17:03:45.209Z,13.40
2019-05-13T17:06:18.193Z,13.30
2019-05-13T17:08:47.923Z,13.30
2019-05-13T17:11:18.091Z,13.30
2019-05-13T17:13:47.697Z,13.40
2019-05-13T17:16:24.317Z,13.50
2019-05-13T17:18:57.639Z,13.50
2019-05-13T17:21:31.613Z,13.60
2019-05-13T17:24:02.052Z,13.70
2019-05-13T17:26:32.816Z,13.70
2019-05-13T17:29:03.161Z,13.80
2019-05-13T17:31:36.323Z,13.80
2019-05-13T17:34:08.010Z,13.70
2019-05-13T17:36:41.872Z,13.60
2019-05-13T17:39:12.565Z,13.50
2019-05-13T17:41:42.597Z,13.40
2019-05-13T17:44:13.583Z,13.20
2019-05-13T17:46:44.436Z,13.20
2019-05-13T17:49:14.860Z,13.10
2019-05-13T17:51:44.568Z,13.00
2019-05-13T17:54:14.323Z,13.00
2019-05-13T17:56:45.109Z,12.90
2019-05-13T17:59:17.810Z,12.90
2019-05-13T18:01:47.923Z,12.80
2019-05-13T18:04:19.253Z,12.80
2019-05-13T18:06:49.448Z,12.80
2019-05-13T18:09:22.304Z,12.70
2019-05-13T18:11:52.817Z,12.60
2019-05-13T18:14:22.453Z,12.60
2019-05-13T18:16:52.522Z,12.60
2019-05-13T18:19:25.325Z,12.60
2019-05-13T18:21:53.416Z,12.50
2019-05-13T18:24:23.603Z,12.50
2019-05-13T18:26:53.348Z,12.40
2019-05-13T18:29:28.446Z,12.30
2019-05-13T18:31:58.248Z,12.20
2019-05-13T18:34:29.409Z,12.10
2019-05-13T18:37:02.445Z,12.00
2019-05-13T18:39:36.447Z,11.90
2019-05-13T18:42:05.932Z,11.90
2019-05-13T18:44:56.368Z,11.80
2019-05-13T18:47:31.107Z,11.80
2019-05-13T18:50:02.295Z,11.70
2019-05-13T18:52:36.983Z,11.60
2019-05-13T18:55:06.907Z,11.60
2019-05-13T18:57:37.697Z,11.50
2019-05-13T19:00:11.113Z,11.50
2019-05-13T19:02:42.890Z,11.40
2019-05-13T19:05:12.587Z,11.30
2019-05-13T19:07:42.393Z,11.20
2019-05-13T19:10:12.780Z,11.20
2019-05-13T19:12:42.367Z,11.10
2019-05-13T19:15:16.792Z,11.10
2019-05-13T19:17:47.177Z,11.10
2019-05-13T19:20:21.986Z,11.00
2019-05-13T19:22:53.251Z,10.90
2019-05-13T19:25:23.734Z,10.90
2019-05-13T19:27:54.763Z,10.90
2019-05-13T19:30:26.407Z,10.80
2019-05-13T19:33:01.228Z,10.80
2019-05-13T19:35:54.765Z,10.80
2019-05-13T19:38:33.050Z,10.70
2019-05-13T19:41:13.177Z,10.60
2019-05-13T19:43:51.201Z,10.50
2019-05-13T19:46:21.070Z,10.40
2019-05-13T19:49:01.749Z,10.40
2019-05-13T19:51:41.441Z,10.30
2019-05-13T19:54:25.402Z,10.30
2019-05-13T19:56:57.701Z,10.30
2019-05-13T19:59:27.919Z,10.20
2019-05-13T20:02:00.834Z,10.10
2019-05-13T20:04:32.195Z,10.10
2019-05-13T20:07:02.466Z,10.20
2019-05-13T20:09:35.830Z,10.10
2019-05-13T20:12:05.749Z,10.00
2019-05-13T20:14:36.876Z,10.00
2019-05-13T20:17:09.603Z,9.90
2019-05-13T20:19:50.694Z,9.90
2019-05-13T20:22:46.845Z,9.90
2019-05-13T20:25:31.023Z,9.90
2019-05-13T20:28:13.482Z,9.90
2019-05-13T20:30:45.621Z,9.90
2019-05-13T20:33:18.756Z,9.90
2019-05-13T20:35:49.065Z,9.90
2019-05-13T20:38:22.180Z,9.80
2019-05-13T20:40:54.517Z,9.70
2019-05-13T20:43:24.837Z,9.70
2019-05-13T20:45:54.768Z,9.70
2019-05-13T20:48:24.464Z,9.80
2019-05-13T20:50:55.005Z,9.80
2019-05-13T20:53:27.072Z,9.90
2019-05-13T20:55:56.439Z,9.80
2019-05-13T20:58:26.662Z,9.90
2019-05-13T21:00:56.781Z,9.80
2019-05-13T21:03:26.465Z,9.80
2019-05-13T21:05:56.898Z,9.80
2019-05-13T21:08:28.066Z,9.70
2019-05-13T21:10:57.550Z,9.80
2019-05-13T21:13:27.294Z,9.70
2019-05-13T21:15:58.523Z,9.80
2019-05-13T21:18:31.415Z,9.80
2019-05-13T21:21:00.536Z,9.80
2019-05-13T21:23:31.309Z,9.70
2019-05-13T21:26:02.079Z,9.70
2019-05-13T21:28:31.882Z,9.70
2019-05-13T21:31:02.631Z,9.70
2019-05-13T21:33:32.401Z,9.70
2019-05-13T21:36:02.607Z,9.60
2019-05-13T21:38:35.590Z,9.50
2019-05-13T21:41:04.977Z,9.40
2019-05-13T21:43:34.443Z,9.30
2019-05-13T21:46:05.152Z,9.20
2019-05-13T21:48:35.163Z,9.00
2019-05-13T21:51:05.446Z,8.90
2019-05-13T21:53:37.438Z,8.80
2019-05-13T21:56:11.946Z,8.70
2019-05-13T21:58:41.712Z,8.70
2019-05-13T22:01:11.540Z,8.60
2019-05-13T22:03:42.090Z,8.60
2019-05-13T22:06:13.947Z,8.50
2019-05-13T22:08:44.911Z,8.50
2019-05-13T22:11:16.816Z,8.50
2019-05-13T22:13:46.130Z,8.40
2019-05-13T22:16:15.760Z,8.30
2019-05-13T22:18:45.245Z,8.20
2019-05-13T22:21:16.249Z,8.20
2019-05-13T22:23:45.873Z,8.10
2019-05-13T22:26:15.295Z,8.00
2019-05-13T22:28:44.693Z,8.00
2019-05-13T22:31:14.092Z,8.00
2019-05-13T22:33:46.303Z,7.90
2019-05-13T22:36:16.497Z,7.80
2019-05-13T22:38:45.911Z,7.70
2019-05-13T22:41:23.882Z,7.60
2019-05-13T22:43:58.486Z,7.60
2019-05-13T22:46:25.785Z,7.50
2019-05-13T22:48:55.165Z,7.50
2019-05-13T22:51:24.756Z,7.40
2019-05-13T22:53:54.181Z,7.40
2019-05-13T22:56:24.353Z,7.30
2019-05-13T22:58:55.438Z,7.30
2019-05-13T23:01:25.350Z,7.30
2019-05-13T23:03:54.759Z,7.20
2019-05-13T23:06:24.493Z,7.20
2019-05-13T23:08:54.746Z,7.20
2019-05-13T23:11:24.129Z,7.20
2019-05-13T23:14:06.387Z,7.10
2019-05-13T23:16:24.895Z,7.10
2019-05-13T23:18:54.573Z,7.10
2019-05-13T23:21:25.694Z,7.10
2019-05-13T23:23:56.339Z,7.10
2019-05-13T23:26:26.052Z,7.00
2019-05-13T23:28:55.441Z,7.00
2019-05-13T23:31:25.272Z,7.00
2019-05-13T23:33:54.668Z,6.90
2019-05-13T23:36:28.850Z,6.80
2019-05-13T23:39:00.943Z,6.80
2019-05-13T23:41:30.246Z,6.70
2019-05-13T23:44:01.414Z,6.60
2019-05-13T23:46:31.448Z,6.50
2019-05-13T23:49:01.327Z,6.40
2019-05-13T23:51:35.511Z,6.30
2019-05-13T23:54:05.108Z,6.20
2019-05-13T23:56:34.492Z,6.20
2019-05-13T23:59:05.088Z,6.10
